Terminal Aerodrome Forecast
Issued by NWS

Home | Current Version | Previous Version | Text Only | Print | Product List | Glossary On
Versions: 1 2 3 4 5 6 7 8 9 10 11 12 13 14 15 16 17 18 19 20 21 22 23 24 25
000
FTUS46 KSGX 051502 AAA
TAFSAN
TAF AMD
KSAN 051502Z 0515/0618 VRB04KT P6SM OVC019
     FM052000 29010KT P6SM BKN020
      TEMPO 0520/0524 SCT020
     FM060200 VRB04KT P6SM OVC016=

USA.gov is the U.S. government's official web portal to all federal, state and local government web resources and services.